Time;durP1;ratioP1;P1;durP2;ratioP2;P2;SDS_P1;SDS_P2;PMS_P1;PMS_P2;Temp;Humidity;BMP_temperature;BMP_pressure;BME280_temperature;BME280_humidity;BME280_pressure;Samples;Min_cycle;Max_cycle;Signal;HPM_P1;HPM_P2
2021/10/31 00:01:16;;;;;;;58.13;3.00;;;10.50;1.00;;;;;;5092162;28;20536;-65
2021/10/31 00:03:43;;;;;;;58.20;2.60;;;10.50;1.00;;;;;;5092148;28;20438;-65
2021/10/31 00:06:10;;;;;;;57.73;2.60;;;10.50;1.00;;;;;;5091704;28;20454;-65
2021/10/31 00:08:38;;;;;;;58.30;3.13;;;10.50;1.00;;;;;;5092396;28;20528;-65
2021/10/31 00:11:06;;;;;;;58.50;3.33;;;10.50;1.00;;;;;;5092203;28;20469;-64
2021/10/31 00:13:33;;;;;;;58.30;3.00;;;10.50;1.00;;;;;;5092176;28;20460;-65
2021/10/31 00:16:00;;;;;;;58.90;4.60;;;10.50;1.00;;;;;;5092012;28;20539;-64
2021/10/31 00:18:27;;;;;;;58.07;2.90;;;10.50;1.00;;;;;;5092019;28;20485;-64
2021/10/31 00:20:56;;;;;;;58.17;2.70;;;10.60;1.00;;;;;;5091847;28;20468;-64
2021/10/31 00:23:23;;;;;;;58.10;2.70;;;10.60;1.00;;;;;;5092178;28;20454;-64
2021/10/31 00:25:51;;;;;;;58.33;3.00;;;10.60;1.00;;;;;;5091187;28;20446;-64
2021/10/31 00:28:19;;;;;;;58.37;2.60;;;10.60;1.00;;;;;;5092061;28;20525;-64
2021/10/31 00:30:45;;;;;;;58.20;3.10;;;10.60;1.00;;;;;;5091902;28;20501;-64
2021/10/31 00:33:12;;;;;;;58.30;3.00;;;10.60;1.00;;;;;;5091779;28;20537;-64
2021/10/31 00:35:39;;;;;;;58.03;2.80;;;10.60;1.00;;;;;;5091815;28;20515;-64
2021/10/31 00:38:06;;;;;;;58.17;2.80;;;10.60;1.00;;;;;;5091719;28;20527;-64
2021/10/31 00:40:33;;;;;;;58.30;3.00;;;10.60;1.00;;;;;;5092087;28;20557;-64
2021/10/31 00:43:01;;;;;;;57.50;2.73;;;10.60;1.00;;;;;;5091890;28;20808;-64
2021/10/31 00:45:28;;;;;;;58.23;2.73;;;10.70;1.00;;;;;;5091507;28;20489;-64
2021/10/31 00:47:55;;;;;;;58.07;3.00;;;10.70;1.00;;;;;;5091628;28;20536;-64
2021/10/31 00:50:23;;;;;;;58.03;2.80;;;10.70;1.00;;;;;;5091865;28;20841;-64
2021/10/31 00:52:50;;;;;;;59.10;3.83;;;10.70;1.00;;;;;;5091687;28;21025;-64
2021/10/31 00:55:17;;;;;;;57.93;2.80;;;10.70;1.00;;;;;;5091588;28;20446;-64
2021/10/31 00:57:44;;;;;;;58.47;3.33;;;10.70;1.00;;;;;;5091430;28;20577;-64
2021/10/31 01:00:13;;;;;;;58.40;2.80;;;10.70;1.00;;;;;;5091470;28;20487;-64
2021/10/31 01:02:41;;;;;;;58.37;2.80;;;10.60;1.00;;;;;;5091574;28;20957;-64
2021/10/31 01:05:11;;;;;;;58.03;3.10;;;10.60;1.00;;;;;;5091673;28;20491;-64
2021/10/31 01:08:03;;;;;;;57.97;2.70;;;10.60;1.00;;;;;;5091343;28;20457;-64
2021/10/31 01:10:40;;;;;;;58.50;3.03;;;10.60;1.00;;;;;;5091598;28;20473;-64
2021/10/31 01:13:31;;;;;;;58.20;2.90;;;10.50;1.00;;;;;;5091771;28;20446;-64
2021/10/31 01:16:13;;;;;;;58.40;2.90;;;10.50;1.00;;;;;;5091335;28;20454;-64
2021/10/31 01:18:57;;;;;;;57.93;2.60;;;10.40;1.00;;;;;;5091442;28;21008;-64
2021/10/31 01:21:33;;;;;;;58.10;2.70;;;10.40;1.00;;;;;;5091357;28;20557;-64
2021/10/31 01:24:19;;;;;;;58.70;2.90;;;10.40;1.00;;;;;;5091672;28;20456;-64
2021/10/31 01:26:55;;;;;;;58.17;2.70;;;10.30;1.00;;;;;;5091055;28;20453;-64
2021/10/31 01:29:42;;;;;;;58.07;2.67;;;10.30;1.00;;;;;;5091247;28;20543;-64
2021/10/31 01:32:24;;;;;;;58.20;2.80;;;10.20;1.00;;;;;;5091613;28;20527;-64
2021/10/31 01:35:00;;;;;;;59.20;4.20;;;10.10;1.00;;;;;;5091254;28;20445;-64
2021/10/31 01:37:35;;;;;;;58.07;2.80;;;10.10;1.00;;;;;;5091860;28;20448;-64
2021/10/31 01:40:08;;;;;;;58.13;2.70;;;10.00;1.00;;;;;;5094760;28;20466;-64
2021/10/31 01:42:46;;;;;;;58.07;2.97;;;9.90;1.00;;;;;;5095242;28;20797;-64
2021/10/31 01:45:18;;;;;;;58.07;2.80;;;9.90;1.00;;;;;;5094799;28;20523;-64
2021/10/31 01:47:53;;;;;;;58.13;2.70;;;9.80;1.00;;;;;;5094666;28;20539;-64
2021/10/31 01:50:34;;;;;;;58.07;2.77;;;9.70;1.00;;;;;;5094587;28;20564;-64
2021/10/31 01:53:04;;;;;;;58.17;3.13;;;9.70;1.00;;;;;;5094806;28;20476;-64
2021/10/31 01:55:37;;;;;;;58.13;3.00;;;9.60;1.00;;;;;;5094209;28;20889;-64
2021/10/31 01:58:05;;;;;;;58.27;2.70;;;9.50;1.00;;;;;;5094365;28;20480;-64
2021/10/31 02:00:34;;;;;;;58.07;2.70;;;9.50;1.00;;;;;;5094450;28;20480;-64
2021/10/31 02:03:03;;;;;;;58.03;2.70;;;9.50;1.00;;;;;;5094444;28;20451;-64
2021/10/31 02:05:33;;;;;;;57.97;2.93;;;9.50;1.00;;;;;;5094242;28;20445;-64
2021/10/31 02:08:04;;;;;;;58.03;2.60;;;9.40;1.00;;;;;;5094579;28;20489;-64
2021/10/31 02:10:32;;;;;;;58.17;2.80;;;9.40;1.00;;;;;;5094385;28;20560;-64
2021/10/31 02:13:02;;;;;;;58.33;3.30;;;9.40;1.00;;;;;;5094322;28;20459;-64
2021/10/31 02:15:30;;;;;;;57.97;2.70;;;9.40;1.00;;;;;;5093895;28;20763;-64
2021/10/31 02:18:00;;;;;;;58.33;2.90;;;9.40;1.00;;;;;;5092432;28;20535;-64
2021/10/31 02:20:30;;;;;;;60.00;3.50;;;9.30;1.00;;;;;;5094082;28;20526;-64
2021/10/31 02:23:00;;;;;;;58.30;3.00;;;9.30;1.00;;;;;;5094167;28;20481;-64
2021/10/31 02:25:28;;;;;;;58.30;3.00;;;9.30;1.00;;;;;;5094312;28;20859;-64
2021/10/31 02:27:55;;;;;;;58.20;3.10;;;9.20;1.00;;;;;;5094022;28;20532;-64
2021/10/31 02:30:23;;;;;;;59.03;3.23;;;9.20;1.00;;;;;;5093985;28;20550;-64
2021/10/31 02:32:51;;;;;;;58.13;2.83;;;9.20;1.00;;;;;;5093954;28;20451;-64
2021/10/31 02:35:19;;;;;;;58.57;3.20;;;9.10;1.00;;;;;;5093624;28;20449;-64
2021/10/31 02:37:45;;;;;;;58.40;3.43;;;9.10;1.00;;;;;;5093851;28;20531;-64
2021/10/31 02:40:16;;;;;;;59.27;3.53;;;9.00;1.00;;;;;;5093780;28;20554;-64
2021/10/31 02:42:43;;;;;;;58.17;2.70;;;9.00;1.00;;;;;;5093814;28;20447;-64
2021/10/31 02:45:11;;;;;;;58.37;3.00;;;8.90;1.00;;;;;;5093517;28;20534;-64
2021/10/31 02:47:43;;;;;;;58.20;2.90;;;8.90;1.00;;;;;;5093272;28;20451;-64
2021/10/31 02:50:14;;;;;;;58.57;3.17;;;8.90;1.00;;;;;;5093450;28;20465;-64
2021/10/31 02:52:56;;;;;;;58.17;2.87;;;8.90;1.00;;;;;;5093839;28;20443;-64
2021/10/31 02:55:34;;;;;;;58.60;3.27;;;8.80;1.00;;;;;;5093342;28;20467;-64
2021/10/31 02:58:06;;;;;;;58.17;2.70;;;8.80;1.00;;;;;;5093403;28;20466;-64
2021/10/31 03:00:36;;;;;;;58.27;2.80;;;8.80;1.00;;;;;;5093080;28;20573;-64
2021/10/31 03:03:05;;;;;;;58.37;2.90;;;8.90;1.00;;;;;;5093270;28;20959;-64
2021/10/31 03:05:33;;;;;;;58.27;2.80;;;8.80;1.00;;;;;;5092983;28;21017;-64
2021/10/31 03:08:00;;;;;;;58.20;2.90;;;8.90;1.00;;;;;;5093213;28;20448;-64
2021/10/31 03:10:28;;;;;;;57.93;2.80;;;8.90;1.00;;;;;;5093001;28;20473;-64
2021/10/31 03:12:55;;;;;;;58.10;2.90;;;8.90;1.00;;;;;;5093379;28;20541;-64
2021/10/31 03:15:24;;;;;;;59.27;3.40;;;8.90;1.00;;;;;;5093067;28;20458;-64
2021/10/31 03:17:51;;;;;;;58.17;2.60;;;8.90;1.00;;;;;;5093034;28;20448;-64
2021/10/31 03:20:18;;;;;;;58.07;2.63;;;8.90;1.00;;;;;;5092939;28;20486;-64
2021/10/31 03:22:45;;;;;;;58.17;2.70;;;8.90;1.00;;;;;;5093050;28;20463;-64
2021/10/31 03:25:11;;;;;;;58.27;2.80;;;8.90;1.00;;;;;;5092638;28;20475;-64
2021/10/31 03:27:40;;;;;;;58.13;2.70;;;8.90;1.00;;;;;;5092804;28;20536;-64
2021/10/31 03:30:07;;;;;;;58.07;2.70;;;8.80;1.00;;;;;;5092881;28;20470;-64
2021/10/31 03:32:34;;;;;;;57.97;2.60;;;8.80;1.00;;;;;;5092818;28;20451;-64
2021/10/31 03:35:01;;;;;;;58.37;3.00;;;8.80;1.00;;;;;;5092748;28;20482;-64
2021/10/31 03:37:28;;;;;;;58.17;2.90;;;8.70;1.00;;;;;;5092385;28;20518;-64
2021/10/31 03:39:55;;;;;;;58.30;2.80;;;8.70;1.00;;;;;;5092327;28;20929;-64
2021/10/31 03:42:23;;;;;;;58.07;2.40;;;8.60;1.00;;;;;;5092755;28;20455;-64
2021/10/31 03:44:51;;;;;;;57.97;2.67;;;8.60;1.00;;;;;;5092493;28;20534;-64
2021/10/31 03:47:20;;;;;;;59.43;3.30;;;8.60;1.00;;;;;;5092199;28;20448;-64
2021/10/31 03:49:46;;;;;;;57.87;2.70;;;8.50;1.00;;;;;;5092296;28;20968;-64
2021/10/31 03:52:14;;;;;;;58.20;2.70;;;8.50;1.00;;;;;;5092312;28;20449;-64
2021/10/31 03:54:41;;;;;;;58.03;3.10;;;8.50;1.00;;;;;;5092210;28;20534;-64
2021/10/31 03:57:08;;;;;;;57.87;2.80;;;8.40;1.00;;;;;;5092236;28;20451;-64
2021/10/31 03:59:35;;;;;;;58.27;2.93;;;8.40;1.00;;;;;;5091741;28;20562;-64
2021/10/31 04:02:04;;;;;;;58.37;3.10;;;8.40;1.00;;;;;;5091922;28;20955;-64
2021/10/31 04:04:32;;;;;;;58.17;2.80;;;8.30;1.00;;;;;;5092336;28;20444;-64
2021/10/31 04:06:59;;;;;;;58.17;2.73;;;8.40;1.00;;;;;;5091765;28;20975;-64
2021/10/31 04:09:25;;;;;;;58.20;2.90;;;8.30;1.00;;;;;;5092242;28;20526;-64
2021/10/31 04:11:52;;;;;;;58.08;2.90;;;8.30;1.00;;;;;;5092354;28;20470;-64
2021/10/31 04:14:19;;;;;;;58.28;2.90;;;8.20;1.00;;;;;;5092274;28;20674;-64
2021/10/31 04:16:46;;;;;;;58.30;2.75;;;8.20;1.00;;;;;;5091861;28;20295;-64
2021/10/31 04:19:15;;;;;;;58.17;3.20;;;8.10;1.00;;;;;;5091865;28;20236;-64
2021/10/31 04:21:41;;;;;;;59.10;3.20;;;8.10;1.00;;;;;;5092076;28;20562;-64
2021/10/31 04:24:08;;;;;;;58.08;2.90;;;8.10;1.00;;;;;;5092177;28;20886;-64
2021/10/31 04:26:35;;;;;;;58.35;3.00;;;8.10;1.00;;;;;;5091726;28;20215;-64
2021/10/31 04:29:02;;;;;;;58.08;3.00;;;8.10;1.00;;;;;;5092063;28;20203;-64
2021/10/31 04:31:29;;;;;;;58.38;2.90;;;8.10;1.00;;;;;;5092084;28;20257;-64
2021/10/31 04:33:56;;;;;;;58.03;2.70;;;8.10;1.00;;;;;;5091951;28;20204;-64
2021/10/31 04:36:25;;;;;;;58.05;2.80;;;8.10;1.00;;;;;;5091900;28;20534;-64
2021/10/31 04:38:54;;;;;;;58.17;2.70;;;8.10;1.00;;;;;;5091982;28;20252;-64
2021/10/31 04:41:22;;;;;;;58.90;3.50;;;8.10;1.00;;;;;;5091804;28;20232;-64
2021/10/31 04:43:49;;;;;;;58.30;3.10;;;8.10;1.00;;;;;;5091770;28;20209;-64
2021/10/31 04:46:16;;;;;;;58.28;2.90;;;8.10;1.00;;;;;;5091502;28;20216;-64
2021/10/31 04:48:43;;;;;;;58.50;3.00;;;8.10;1.00;;;;;;5091616;28;20208;-64
2021/10/31 04:51:09;;;;;;;58.00;2.70;;;8.10;1.00;;;;;;5091933;28;20664;-64
2021/10/31 04:53:38;;;;;;;58.20;2.90;;;8.10;1.00;;;;;;5091635;28;20204;-64
2021/10/31 04:56:05;;;;;;;58.17;2.80;;;8.20;1.00;;;;;;5091492;28;20856;-64
2021/10/31 04:58:32;;;;;;;58.15;2.55;;;8.20;1.00;;;;;;5091802;28;20206;-64
2021/10/31 05:01:00;;;;;;;58.28;2.90;;;8.20;1.00;;;;;;5091453;28;20236;-64
2021/10/31 05:03:27;;;;;;;58.25;2.85;;;8.20;1.50;;;;;;5091574;28;20208;-64
2021/10/31 05:05:54;;;;;;;57.87;2.60;;;8.30;2.60;;;;;;5091473;28;20206;-64
2021/10/31 05:08:21;;;;;;;58.13;2.77;;;8.30;3.90;;;;;;5091677;28;20494;-64
2021/10/31 05:10:50;;;;;;;57.87;2.63;;;8.30;4.60;;;;;;5091624;28;20543;-64
2021/10/31 05:13:17;;;;;;;57.77;2.70;;;8.30;5.60;;;;;;5095329;28;20451;-64
2021/10/31 05:15:44;;;;;;;61.33;3.40;;;8.30;6.80;;;;;;5094961;28;20547;-64
2021/10/31 05:18:11;;;;;;;58.50;3.20;;;8.30;7.30;;;;;;5095586;28;20455;-64
2021/10/31 05:20:38;;;;;;;58.17;2.83;;;8.30;7.80;;;;;;5095354;28;20319;-64
2021/10/31 05:23:05;;;;;;;58.17;3.30;;;8.30;8.20;;;;;;5095264;28;20259;-64
2021/10/31 05:25:32;;;;;;;58.80;3.45;;;8.30;9.40;;;;;;5094837;28;20446;-64
2021/10/31 05:28:00;;;;;;;58.20;2.80;;;8.30;8.80;;;;;;5095222;28;20211;-64
2021/10/31 05:30:27;;;;;;;58.03;2.73;;;8.30;9.00;;;;;;5095101;28;20596;-64
2021/10/31 05:32:54;;;;;;;58.13;2.80;;;8.30;10.70;;;;;;5095041;28;20443;-64
2021/10/31 05:35:21;;;;;;;57.97;2.80;;;8.30;10.80;;;;;;5094840;28;20448;-64
2021/10/31 05:37:54;;;;;;;58.20;2.70;;;8.30;11.20;;;;;;5094752;28;20503;-64
2021/10/31 05:40:21;;;;;;;58.20;2.80;;;8.30;11.60;;;;;;5094926;28;20486;-64
2021/10/31 05:42:48;;;;;;;58.17;2.90;;;8.30;12.30;;;;;;5094719;28;20961;-64
2021/10/31 05:45:16;;;;;;;58.25;2.70;;;8.30;12.70;;;;;;5094894;28;20209;-64
2021/10/31 05:47:44;;;;;;;58.17;2.70;;;8.20;12.50;;;;;;5094552;28;20750;-64
2021/10/31 05:50:13;;;;;;;58.28;2.97;;;8.20;12.20;;;;;;5094833;28;20319;-64
2021/10/31 05:52:40;;;;;;;57.87;2.77;;;8.20;11.70;;;;;;5094771;28;20232;-64
2021/10/31 05:55:09;;;;;;;58.20;2.67;;;8.20;11.30;;;;;;5094509;28;20804;-64
2021/10/31 05:57:36;;;;;;;58.17;3.10;;;8.10;10.70;;;;;;5094617;28;20447;-64
2021/10/31 06:00:06;;;;;;;58.17;2.90;;;8.10;10.90;;;;;;5094315;28;20703;-64
2021/10/31 06:02:35;;;;;;;58.30;2.80;;;8.10;11.10;;;;;;5094681;28;20205;-64
2021/10/31 06:05:02;;;;;;;58.47;2.90;;;8.10;12.40;;;;;;5094506;28;20533;-64
2021/10/31 06:07:29;;;;;;;58.33;2.90;;;8.10;12.70;;;;;;5094170;28;20453;-64
2021/10/31 06:09:56;;;;;;;58.28;2.65;;;8.10;13.30;;;;;;5094213;28;20252;-64
2021/10/31 06:12:24;;;;;;;58.37;3.00;;;8.10;14.10;;;;;;5094551;28;20625;-64
2021/10/31 06:14:51;;;;;;;57.97;2.80;;;8.10;14.70;;;;;;5094258;28;20446;-64
2021/10/31 06:17:18;;;;;;;58.17;2.70;;;8.10;15.90;;;;;;5094089;28;20557;-64
2021/10/31 06:19:46;;;;;;;58.28;2.80;;;8.20;17.60;;;;;;5094102;28;20320;-64
2021/10/31 06:22:13;;;;;;;58.38;2.83;;;8.20;18.40;;;;;;5094265;28;20211;-64
2021/10/31 06:24:40;;;;;;;58.17;2.70;;;8.30;20.10;;;;;;5093654;28;20215;-64
2021/10/31 06:27:08;;;;;;;58.07;2.70;;;8.30;20.90;;;;;;5098065;28;20200;-64
2021/10/31 06:29:35;;;;;;;58.17;2.90;;;8.40;22.60;;;;;;5098427;28;20546;-64
2021/10/31 06:32:01;;;;;;;57.95;2.80;;;8.40;24.20;;;;;;5099311;28;20477;-64
2021/10/31 06:34:28;;;;;;;58.10;3.00;;;8.50;25.30;;;;;;5098717;28;20284;-64
2021/10/31 06:36:56;;;;;;;58.03;2.90;;;8.50;26.50;;;;;;5097268;28;20456;-64
2021/10/31 06:39:23;;;;;;;58.27;2.80;;;8.60;27.40;;;;;;5097107;28;20963;-64
2021/10/31 06:41:50;;;;;;;58.37;2.73;;;8.60;28.00;;;;;;5093922;28;20480;-64
2021/10/31 06:44:17;;;;;;;57.93;2.80;;;8.70;29.50;;;;;;5093881;28;20529;-64
2021/10/31 06:46:44;;;;;;;58.20;2.97;;;8.80;31.50;;;;;;5093405;28;20455;-64
2021/10/31 06:49:12;;;;;;;57.90;2.80;;;8.80;33.50;;;;;;5093443;28;20983;-64
2021/10/31 06:51:39;;;;;;;58.17;3.13;;;8.90;34.80;;;;;;5093438;28;20448;-64
2021/10/31 06:54:08;;;;;;;57.97;2.67;;;9.00;37.60;;;;;;5093455;28;20449;-64
2021/10/31 06:56:35;;;;;;;58.17;2.80;;;9.00;38.10;;;;;;5093311;28;20448;-64
2021/10/31 06:59:02;;;;;;;57.93;2.60;;;9.10;38.50;;;;;;5093437;28;20445;-64
2021/10/31 07:01:29;;;;;;;58.10;3.00;;;9.10;38.40;;;;;;5093325;28;20499;-64
2021/10/31 07:03:55;;;;;;;58.60;3.50;;;9.10;38.70;;;;;;5093783;28;20450;-64
2021/10/31 07:06:22;;;;;;;58.07;2.80;;;9.10;37.90;;;;;;5092845;28;20524;-64
2021/10/31 07:08:49;;;;;;;58.07;2.80;;;9.10;36.50;;;;;;5093479;28;20450;-64
2021/10/31 07:11:17;;;;;;;57.97;2.67;;;9.20;36.00;;;;;;5093068;28;20472;-64
2021/10/31 07:13:44;;;;;;;58.00;2.70;;;9.20;36.70;;;;;;5093325;28;20475;-64
2021/10/31 07:16:11;;;;;;;58.23;3.10;;;9.30;36.60;;;;;;5092827;28;20820;-64
2021/10/31 07:18:38;;;;;;;58.03;2.80;;;9.40;36.70;;;;;;5092963;28;21002;-64
2021/10/31 07:21:05;;;;;;;62.30;3.10;;;9.40;37.10;;;;;;5093076;28;20487;-64
2021/10/31 07:23:32;;;;;;;57.87;2.57;;;9.50;37.90;;;;;;5092858;28;20506;-64
2021/10/31 07:25:59;;;;;;;58.37;2.60;;;9.60;37.10;;;;;;5092510;28;20451;-64
2021/10/31 07:28:27;;;;;;;57.87;2.60;;;9.60;37.30;;;;;;5092772;28;20536;-64
2021/10/31 07:30:56;;;;;;;58.03;2.77;;;9.70;37.60;;;;;;5092718;28;20461;-64
2021/10/31 07:33:23;;;;;;;58.00;2.50;;;9.80;38.30;;;;;;5092676;28;20453;-64
2021/10/31 07:35:51;;;;;;;58.07;2.70;;;9.90;39.40;;;;;;5092504;28;20460;-64
2021/10/31 07:38:18;;;;;;;58.00;2.63;;;9.90;39.30;;;;;;5092851;28;20455;-64
2021/10/31 07:40:45;;;;;;;57.90;2.60;;;10.00;38.10;;;;;;5092552;28;20481;-64
2021/10/31 07:43:12;;;;;;;58.30;3.00;;;10.10;37.90;;;;;;5092679;28;20449;-64
2021/10/31 07:45:41;;;;;;;57.87;2.87;;;10.10;37.50;;;;;;5092169;28;20483;-64
2021/10/31 07:48:08;;;;;;;58.37;2.90;;;10.20;37.20;;;;;;5092716;28;20445;-64
2021/10/31 07:50:36;;;;;;;57.87;2.60;;;10.30;37.20;;;;;;5092477;28;20497;-64
2021/10/31 07:53:04;;;;;;;57.77;2.70;;;10.30;36.60;;;;;;5092569;28;20447;-64
2021/10/31 07:55:33;;;;;;;58.77;3.50;;;10.40;37.00;;;;;;5092033;28;20579;-64
2021/10/31 07:58:01;;;;;;;58.17;2.70;;;10.50;38.00;;;;;;5092375;28;20453;-64
2021/10/31 08:00:29;;;;;;;60.07;3.57;;;10.60;38.20;;;;;;5091959;28;20977;-64
2021/10/31 08:02:57;;;;;;;58.27;2.80;;;10.70;36.70;;;;;;5092417;28;20438;-65
2021/10/31 08:05:27;;;;;;;58.10;2.60;;;10.80;33.10;;;;;;5092005;28;20485;-65
2021/10/31 08:07:55;;;;;;;58.07;2.77;;;10.80;26.70;;;;;;5092390;28;20448;-65
2021/10/31 08:10:22;;;;;;;58.20;2.80;;;10.80;17.80;;;;;;5092124;28;20976;-65
2021/10/31 08:12:49;;;;;;;57.87;2.80;;;10.80;4.00;;;;;;5092045;28;20477;-65
2021/10/31 08:15:16;;;;;;;58.17;2.60;;;10.90;1.00;;;;;;5092004;28;20482;-65
2021/10/31 08:17:43;;;;;;;57.97;2.50;;;10.90;1.00;;;;;;5091762;28;20480;-64
2021/10/31 08:20:12;;;;;;;58.13;2.60;;;10.90;1.00;;;;;;5092007;28;20575;-65
2021/10/31 08:22:39;;;;;;;58.13;3.00;;;11.00;1.00;;;;;;5092095;28;20445;-65
2021/10/31 08:25:07;;;;;;;58.47;3.00;;;11.10;1.00;;;;;;5091802;28;20548;-64
2021/10/31 08:27:34;;;;;;;58.17;2.77;;;11.30;1.00;;;;;;5091657;28;20532;-65
2021/10/31 08:30:01;;;;;;;58.17;2.90;;;11.40;1.00;;;;;;5092139;28;20836;-65
2021/10/31 08:32:28;;;;;;;58.60;3.70;;;11.50;1.00;;;;;;5092065;28;20481;-65
2021/10/31 08:34:55;;;;;;;57.93;2.70;;;11.60;1.00;;;;;;5091913;28;20457;-65
2021/10/31 08:37:24;;;;;;;58.17;2.97;;;11.70;1.00;;;;;;5091672;28;20442;-65
2021/10/31 08:39:50;;;;;;;64.87;3.07;;;11.70;1.00;;;;;;5091643;28;20571;-65
2021/10/31 08:42:17;;;;;;;58.27;2.90;;;11.70;1.00;;;;;;5092047;28;20838;-65
2021/10/31 08:44:45;;;;;;;58.30;3.20;;;11.70;1.00;;;;;;5091897;28;20824;-65
2021/10/31 08:47:11;;;;;;;58.17;2.90;;;11.80;1.00;;;;;;5093720;28;20454;-65
2021/10/31 08:49:38;;;;;;;58.20;2.83;;;11.80;1.00;;;;;;5095845;28;20541;-65
2021/10/31 08:52:07;;;;;;;58.40;3.00;;;11.80;1.00;;;;;;5096326;28;20941;-65
2021/10/31 08:54:37;;;;;;;58.40;3.20;;;11.80;1.00;;;;;;5095807;28;20827;-65
2021/10/31 08:57:05;;;;;;;58.37;3.37;;;11.80;1.00;;;;;;5095744;28;20476;-65
2021/10/31 08:59:32;;;;;;;58.47;2.90;;;11.70;1.00;;;;;;5095700;28;20879;-65
2021/10/31 09:01:59;;;;;;;58.10;2.70;;;11.70;1.00;;;;;;5096025;28;20485;-65
2021/10/31 09:04:27;;;;;;;58.37;3.00;;;11.70;1.00;;;;;;5095707;28;20472;-65
2021/10/31 09:06:55;;;;;;;58.20;2.70;;;11.80;1.00;;;;;;5095260;28;20473;-65
2021/10/31 09:09:24;;;;;;;58.17;2.60;;;12.00;1.00;;;;;;5095733;28;20537;-65
2021/10/31 09:11:52;;;;;;;58.10;3.00;;;12.10;1.00;;;;;;5095710;28;20495;-65
2021/10/31 09:14:20;;;;;;;58.27;2.80;;;12.10;1.00;;;;;;5095371;28;20537;-65
2021/10/31 09:16:48;;;;;;;57.97;2.60;;;12.20;1.00;;;;;;5094998;28;20953;-65
2021/10/31 09:19:15;;;;;;;57.47;2.70;;;12.30;1.00;;;;;;5095366;28;20462;-65
2021/10/31 09:21:43;;;;;;;58.07;2.53;;;12.40;1.00;;;;;;5095127;28;20491;-65
2021/10/31 09:24:10;;;;;;;58.20;2.60;;;12.60;1.00;;;;;;5095383;28;20896;-65
2021/10/31 09:26:37;;;;;;;58.67;3.40;;;12.90;1.00;;;;;;5095117;28;20538;-65
2021/10/31 09:29:05;;;;;;;58.07;3.30;;;13.50;1.00;;;;;;5095252;28;20529;-65
2021/10/31 09:31:32;;;;;;;58.40;2.60;;;14.60;1.00;;;;;;5095631;28;20513;-65
2021/10/31 09:34:00;;;;;;;57.77;2.60;;;15.80;1.00;;;;;;5094946;28;20900;-65
2021/10/31 09:36:27;;;;;;;58.27;2.87;;;16.80;1.00;;;;;;5094930;28;20480;-65
2021/10/31 09:38:56;;;;;;;58.30;3.17;;;17.60;1.00;;;;;;5095178;28;20456;-65
2021/10/31 09:41:24;;;;;;;58.17;2.50;;;18.50;1.00;;;;;;5094742;28;20486;-65
2021/10/31 09:43:57;;;;;;;58.27;2.80;;;19.50;1.00;;;;;;5095188;28;20547;-65
2021/10/31 09:46:25;;;;;;;58.13;2.60;;;20.50;1.00;;;;;;5094594;28;20850;-65
2021/10/31 09:48:52;;;;;;;58.17;2.30;;;21.70;1.00;;;;;;5094711;28;20549;-65
2021/10/31 09:51:22;;;;;;;58.37;2.67;;;22.50;1.00;;;;;;5094844;28;20553;-63
2021/10/31 09:53:49;;;;;;;58.07;2.30;;;23.30;1.00;;;;;;5094835;28;20537;-63
2021/10/31 09:56:16;;;;;;;58.07;2.10;;;24.00;1.00;;;;;;5094388;28;20485;-64
2021/10/31 09:58:44;;;;;;;57.87;2.50;;;24.70;1.00;;;;;;5093412;28;20537;-64
2021/10/31 10:01:36;;;;;;;58.50;2.67;;;25.30;1.00;;;;;;5094226;28;20494;-63
2021/10/31 10:04:03;;;;;;;57.47;2.00;;;25.80;1.00;;;;;;5094717;28;20532;-64
2021/10/31 10:06:32;;;;;;;57.47;2.03;;;26.10;1.00;;;;;;5094199;28;20453;-63
2021/10/31 10:09:06;;;;;;;57.50;2.00;;;26.40;1.00;;;;;;5094349;28;20438;-63
2021/10/31 10:11:35;;;;;;;57.80;2.30;;;26.70;1.00;;;;;;5094282;28;21030;-63
2021/10/31 10:14:15;;;;;;;57.47;1.90;;;27.50;1.00;;;;;;5094570;28;20590;-63
2021/10/31 10:16:44;;;;;;;57.70;2.00;;;28.00;1.00;;;;;;5093884;28;20441;-63
2021/10/31 10:19:19;;;;;;;57.47;1.87;;;28.20;1.00;;;;;;5094001;28;20961;-64
2021/10/31 10:21:53;;;;;;;58.07;2.07;;;28.60;1.00;;;;;;5094006;28;21009;-63
2021/10/31 10:24:22;;;;;;;57.37;2.00;;;28.90;1.00;;;;;;5094336;28;20529;-63
2021/10/31 10:26:49;;;;;;;57.40;1.97;;;29.20;1.00;;;;;;5093670;28;20454;-64
2021/10/31 10:29:19;;;;;;;57.27;2.00;;;29.40;1.00;;;;;;5094115;28;20446;-63
2021/10/31 10:31:49;;;;;;;57.70;2.20;;;29.50;1.00;;;;;;5094036;28;20442;-63
2021/10/31 10:34:17;;;;;;;59.20;2.37;;;29.90;1.00;;;;;;5093908;28;20455;-63
2021/10/31 10:36:47;;;;;;;57.90;2.30;;;30.30;1.00;;;;;;5093602;28;20539;-64
2021/10/31 10:39:17;;;;;;;57.40;2.00;;;31.30;1.00;;;;;;5094015;28;20532;-64
2021/10/31 10:41:47;;;;;;;57.17;2.10;;;31.70;1.00;;;;;;5093824;28;20495;-64
2021/10/31 10:44:25;;;;;;;57.40;1.97;;;32.10;1.00;;;;;;5093940;28;20453;-64
2021/10/31 10:46:57;;;;;;;57.50;2.83;;;32.50;1.00;;;;;;5093884;28;20526;-64
2021/10/31 10:49:24;;;;;;;57.30;2.00;;;32.90;1.00;;;;;;5093831;28;20474;-64
2021/10/31 10:52:19;;;;;;;58.00;2.20;;;33.70;1.00;;;;;;5093619;28;20474;-64
2021/10/31 10:54:47;;;;;;;57.30;1.90;;;34.10;1.00;;;;;;5093568;28;20450;-64
2021/10/31 10:57:15;;;;;;;57.67;2.30;;;34.80;1.00;;;;;;5093130;28;20442;-64
2021/10/31 10:59:42;;;;;;;57.00;2.57;;;35.60;1.00;;;;;;5093333;28;20490;-64
2021/10/31 11:02:14;;;;;;;56.83;1.80;;;36.20;1.00;;;;;;5093601;28;20478;-64
2021/10/31 11:04:42;;;;;;;57.07;2.20;;;36.70;1.00;;;;;;5093460;28;20446;-64
2021/10/31 11:07:10;;;;;;;57.27;2.30;;;37.20;99.90;;;;;;5093011;28;20493;-64
2021/10/31 11:09:42;;;;;;;57.10;2.10;;;37.10;99.90;;;;;;5092892;28;20469;-64
2021/10/31 11:12:31;;;;;;;56.83;1.87;;;36.80;99.90;;;;;;5093082;28;20466;-64
2021/10/31 11:15:03;;;;;;;57.37;2.20;;;36.40;99.90;;;;;;5092979;28;20457;-64
2021/10/31 11:17:31;;;;;;;57.40;2.50;;;36.00;99.90;;;;;;5092835;28;20951;-64
2021/10/31 11:19:59;;;;;;;57.20;1.87;;;35.70;99.90;;;;;;5092891;28;20985;-64
2021/10/31 11:22:29;;;;;;;56.97;2.10;;;35.80;99.90;;;;;;5092877;28;20439;-64
2021/10/31 11:24:57;;;;;;;57.37;1.87;;;36.10;99.90;;;;;;5093092;28;20446;-64
2021/10/31 11:27:26;;;;;;;57.17;2.00;;;35.70;99.90;;;;;;5092597;28;20533;-64
2021/10/31 11:29:54;;;;;;;57.17;2.00;;;34.90;99.90;;;;;;5092822;28;20473;-64
2021/10/31 11:32:23;;;;;;;57.10;2.30;;;33.90;99.90;;;;;;5092790;28;20570;-64
2021/10/31 11:34:53;;;;;;;57.23;2.00;;;33.30;99.90;;;;;;5092687;28;20533;-64
2021/10/31 11:37:23;;;;;;;57.27;2.27;;;33.40;99.90;;;;;;5092635;28;20449;-64
2021/10/31 11:39:55;;;;;;;57.13;2.00;;;33.70;99.90;;;;;;5092535;28;20466;-64
2021/10/31 11:42:22;;;;;;;57.13;2.10;;;34.40;99.90;;;;;;5092797;28;20525;-64
2021/10/31 11:45:00;;;;;;;57.50;2.03;;;34.90;99.90;;;;;;5092484;28;20448;-64
2021/10/31 11:47:30;;;;;;;57.10;1.97;;;34.80;99.90;;;;;;5092136;28;20529;-64
2021/10/31 11:50:05;;;;;;;57.03;1.90;;;35.20;99.90;;;;;;5092707;28;20492;-64
2021/10/31 11:53:00;;;;;;;57.27;2.40;;;35.90;99.90;;;;;;5092489;28;20481;-64
2021/10/31 11:58:53;;;;;;;56.93;1.70;;;36.30;99.90;;;;;;5088766;28;20943;-64
2021/10/31 12:01:31;;;;;;;56.97;1.77;;;36.10;99.90;;;;;;5092158;28;20470;-64
2021/10/31 12:03:59;;;;;;;57.00;1.90;;;36.10;99.90;;;;;;5092324;28;20858;-64
2021/10/31 12:06:44;;;;;;;56.87;1.90;;;36.30;99.90;;;;;;5092135;28;20476;-64
2021/10/31 12:09:28;;;;;;;56.97;1.80;;;36.40;99.90;;;;;;5092187;28;20473;-64
2021/10/31 12:12:17;;;;;;;57.07;1.80;;;36.10;99.90;;;;;;5092172;28;20484;-64
2021/10/31 12:14:53;;;;;;;57.13;2.00;;;36.00;99.90;;;;;;5092333;28;20858;-64
2021/10/31 12:17:22;;;;;;;57.00;2.00;;;36.30;99.90;;;;;;5091732;28;20442;-64
2021/10/31 12:19:52;;;;;;;57.50;2.07;;;36.60;99.90;;;;;;5091974;28;20489;-65
2021/10/31 12:22:22;;;;;;;57.00;1.90;;;36.60;99.90;;;;;;5091416;28;20443;-64
2021/10/31 12:24:51;;;;;;;57.10;1.90;;;36.30;99.90;;;;;;5091949;28;20446;-64
2021/10/31 12:27:20;;;;;;;56.87;2.00;;;36.10;99.90;;;;;;5091908;28;20446;-64
2021/10/31 12:33:02;;;;;;;56.60;1.70;;;37.30;99.90;;;;;;5091500;28;20490;-65
2021/10/31 12:35:32;;;;;;;56.67;1.80;;;38.30;99.90;;;;;;5091545;28;20450;-64
2021/10/31 12:38:32;;;;;;;56.67;1.63;;;39.00;99.90;;;;;;5091923;28;20485;-65
2021/10/31 12:41:23;;;;;;;57.33;2.23;;;39.70;99.90;;;;;;5089354;28;20478;-65
2021/10/31 12:43:54;;;;;;;56.67;1.83;;;40.70;99.90;;;;;;5091950;28;20446;-65
2021/10/31 12:46:25;;;;;;;56.90;1.93;;;41.30;99.90;;;;;;5091855;28;20446;-65
2021/10/31 12:48:53;;;;;;;56.97;2.47;;;41.90;99.90;;;;;;5091998;28;20456;-65
2021/10/31 12:51:40;;;;;;;56.23;2.00;;;42.50;99.90;;;;;;5091686;28;20628;-65
2021/10/31 12:54:11;;;;;;;56.60;1.80;;;43.10;99.90;;;;;;5091475;28;20453;-65
2021/10/31 12:56:40;;;;;;;56.97;1.77;;;43.10;99.90;;;;;;5091399;28;20454;-64
2021/10/31 12:59:11;;;;;;;56.83;1.77;;;43.20;99.90;;;;;;5091797;28;20529;-65
2021/10/31 13:01:38;;;;;;;56.77;2.10;;;43.20;99.90;;;;;;5091688;28;20446;-65
2021/10/31 13:04:07;;;;;;;56.07;1.80;;;43.10;99.90;;;;;;5091578;28;20529;-65
2021/10/31 13:06:52;;;;;;;56.53;1.80;;;43.20;99.90;;;;;;5091208;28;20813;-65